Time;durP1;ratioP1;P1;durP2;ratioP2;P2;SDS_P1;SDS_P2;PMS_P1;PMS_P2;Temp;Humidity;BMP_temperature;BMP_pressure;BME280_temperature;BME280_humidity;BME280_pressure;Samples;Min_cycle;Max_cycle;Signal;HPM_P1;HPM_P2
2022/08/27 00:01:38;;;;;;;;;1.00;1.00;;;;;;;;5023092;28;62151;-74
2022/08/27 00:04:03;;;;;;;;;1.25;1.25;;;;;;;;5022689;28;62036;-74
2022/08/27 00:06:28;;;;;;;;;1.00;1.00;;;;;;;;5021228;28;61859;-74
2022/08/27 00:08:54;;;;;;;;;2.00;1.00;;;;;;;;5021369;28;62027;-74
2022/08/27 00:11:20;;;;;;;;;1.00;1.00;;;;;;;;5022783;28;61775;-74
2022/08/27 00:13:46;;;;;;;;;1.50;1.00;;;;;;;;5022575;28;62937;-74
2022/08/27 00:16:13;;;;;;;;;3.00;2.00;;;;;;;;5023048;28;61865;-74
2022/08/27 00:18:39;;;;;;;;;1.25;1.25;;;;;;;;5021240;28;61928;-74
2022/08/27 00:21:04;;;;;;;;;2.00;1.00;;;;;;;;5021404;28;61921;-74
2022/08/27 00:23:30;;;;;;;;;1.25;1.25;;;;;;;;5021943;28;62753;-74
2022/08/27 00:25:56;;;;;;;;;2.75;2.75;;;;;;;;5022348;28;61829;-74
2022/08/27 00:28:21;;;;;;;;;1.00;1.00;;;;;;;;5023145;28;61929;-74
2022/08/27 00:30:47;;;;;;;;;1.67;1.00;;;;;;;;5021366;28;62006;-75
2022/08/27 00:33:12;;;;;;;;;2.00;1.00;;;;;;;;5020752;28;63836;-75
2022/08/27 00:35:38;;;;;;;;;1.00;1.00;;;;;;;;5022281;28;61750;-74
2022/08/27 00:38:04;;;;;;;;;1.25;1.25;;;;;;;;5022897;28;61754;-75
2022/08/27 00:40:30;;;;;;;;;1.00;1.00;;;;;;;;5021250;28;61657;-75
2022/08/27 00:42:57;;;;;;;;;1.00;1.00;;;;;;;;5021914;28;62901;-75
2022/08/27 00:45:23;;;;;;;;;0.33;0.33;;;;;;;;5021210;28;61836;-75
2022/08/27 00:47:53;;;;;;;;;5.00;1.00;;;;;;;;5020743;28;61763;-75
2022/08/27 00:50:23;;;;;;;;;2.67;0.67;;;;;;;;5021269;28;62740;-75
2022/08/27 00:52:56;;;;;;;;;1.00;1.00;;;;;;;;5020157;28;65329;-74
2022/08/27 00:55:24;;;;;;;;;0.67;0.67;;;;;;;;5020865;28;61841;-75
2022/08/27 00:58:01;;;;;;;;;1.67;1.00;;;;;;;;5022207;28;61861;-74
2022/08/27 01:00:26;;;;;;;;;1.00;1.00;;;;;;;;5022663;28;61838;-75
2022/08/27 01:02:51;;;;;;;;;1.00;1.00;;;;;;;;5021134;28;61969;-75
2022/08/27 01:05:19;;;;;;;;;1.00;0.00;;;;;;;;5022413;28;61835;-75
2022/08/27 01:07:47;;;;;;;;;3.00;1.25;;;;;;;;5020746;28;61797;-75
2022/08/27 01:10:14;;;;;;;;;1.25;1.25;;;;;;;;5020891;28;62147;-75
2022/08/27 01:12:39;;;;;;;;;3.00;1.00;;;;;;;;5020934;28;62118;-75
2022/08/27 01:15:06;;;;;;;;;1.00;1.00;;;;;;;;5022273;28;62134;-75
2022/08/27 01:17:32;;;;;;;;;1.67;1.67;;;;;;;;5021953;28;61791;-74
2022/08/27 01:19:59;;;;;;;;;0.33;0.33;;;;;;;;5022040;28;61895;-75
2022/08/27 01:22:33;;;;;;;;;0.67;0.67;;;;;;;;5020182;28;63735;-74
2022/08/27 01:25:07;;;;;;;;;1.00;1.00;;;;;;;;5020334;28;61750;-75
2022/08/27 01:27:33;;;;;;;;;2.00;0.75;;;;;;;;5020465;28;61979;-75
2022/08/27 01:29:58;;;;;;;;;1.00;1.00;;;;;;;;5022032;28;61962;-75
2022/08/27 01:32:26;;;;;;;;;2.00;2.00;;;;;;;;5021435;28;61871;-75
2022/08/27 01:34:52;;;;;;;;;1.00;1.00;;;;;;;;5021710;28;61660;-75
2022/08/27 01:37:19;;;;;;;;;1.00;1.00;;;;;;;;5021842;28;61707;-74
2022/08/27 01:39:44;;;;;;;;;3.00;2.00;;;;;;;;5020580;28;61802;-75
2022/08/27 01:42:21;;;;;;;;;1.33;1.00;;;;;;;;5019468;28;63808;-74
2022/08/27 01:44:51;;;;;;;;;2.00;1.00;;;;;;;;5020048;28;61989;-75
2022/08/27 01:47:18;;;;;;;;;0.67;0.67;;;;;;;;5021660;28;61816;-74
2022/08/27 01:49:43;;;;;;;;;1.00;1.00;;;;;;;;5021641;28;62265;-75
2022/08/27 01:52:09;;;;;;;;;2.00;2.00;;;;;;;;5019600;28;63497;-74
2022/08/27 01:54:34;;;;;;;;;3.00;0.75;;;;;;;;5021558;28;61772;-75
2022/08/27 01:57:01;;;;;;;;;1.00;0.67;;;;;;;;5021226;28;62843;-75
2022/08/27 01:59:26;;;;;;;;;3.00;1.50;;;;;;;;5020340;28;61730;-75
2022/08/27 02:01:53;;;;;;;;;1.50;0.50;;;;;;;;5020439;28;61800;-75
2022/08/27 02:04:18;;;;;;;;;0.67;0.67;;;;;;;;5021828;28;61815;-75
2022/08/27 02:06:43;;;;;;;;;2.00;1.00;;;;;;;;5021358;28;61777;-75
2022/08/27 02:09:09;;;;;;;;;2.00;0.00;;;;;;;;5021824;28;61688;-74
2022/08/27 02:11:34;;;;;;;;;1.33;0.67;;;;;;;;5019109;28;65102;-75
2022/08/27 02:13:59;;;;;;;;;3.00;1.67;;;;;;;;5019693;28;62182;-75
2022/08/27 02:16:24;;;;;;;;;2.67;1.67;;;;;;;;5020039;28;61803;-75
2022/08/27 02:18:53;;;;;;;;;1.00;1.00;;;;;;;;5020072;28;62159;-75
2022/08/27 02:21:19;;;;;;;;;2.00;2.00;;;;;;;;5019315;28;64240;-74
2022/08/27 02:23:44;;;;;;;;;1.00;1.00;;;;;;;;5021062;28;61826;-75
2022/08/27 02:26:09;;;;;;;;;0.67;0.33;;;;;;;;5019786;28;61960;-75
2022/08/27 02:28:35;;;;;;;;;3.50;1.75;;;;;;;;5020245;28;62248;-75
2022/08/27 02:31:00;;;;;;;;;1.00;1.00;;;;;;;;5020152;28;63701;-75
2022/08/27 02:33:26;;;;;;;;;2.00;0.67;;;;;;;;5023260;28;62049;-74
2022/08/27 02:35:51;;;;;;;;;2.00;1.00;;;;;;;;5023337;28;61833;-74
2022/08/27 02:38:16;;;;;;;;;3.75;0.00;;;;;;;;5024867;28;61921;-75
2022/08/27 02:40:42;;;;;;;;;1.00;1.00;;;;;;;;5023762;28;61902;-75
2022/08/27 02:43:07;;;;;;;;;4.25;2.00;;;;;;;;5022928;28;62018;-74
2022/08/27 02:45:33;;;;;;;;;0.75;0.75;;;;;;;;5024478;28;61835;-74
2022/08/27 02:47:58;;;;;;;;;1.33;0.33;;;;;;;;5024234;28;61787;-74
2022/08/27 02:50:24;;;;;;;;;1.00;1.00;;;;;;;;5022672;28;63414;-74
2022/08/27 02:52:49;;;;;;;;;3.00;1.00;;;;;;;;5022526;28;62066;-74
2022/08/27 02:55:15;;;;;;;;;1.00;1.00;;;;;;;;5023787;28;61932;-75
2022/08/27 02:57:41;;;;;;;;;0.33;0.33;;;;;;;;5024694;28;61717;-75
2022/08/27 03:00:09;;;;;;;;;2.33;1.00;;;;;;;;5023092;28;61850;-74
2022/08/27 03:02:35;;;;;;;;;0.00;0.00;;;;;;;;5024133;28;61834;-75
2022/08/27 03:05:00;;;;;;;;;1.00;1.00;;;;;;;;5022510;28;61843;-74
2022/08/27 03:07:25;;;;;;;;;0.67;0.67;;;;;;;;5024135;28;61888;-75
2022/08/27 03:09:51;;;;;;;;;0.67;0.67;;;;;;;;5022351;28;64710;-75
2022/08/27 03:12:16;;;;;;;;;1.00;1.00;;;;;;;;5023365;28;61882;-75
2022/08/27 03:14:42;;;;;;;;;1.67;1.67;;;;;;;;5023964;28;61851;-74
2022/08/27 03:20:03;;;;;;;;;2.00;0.00;;;;;;;;5007802;28;62276;-75
2022/08/27 03:22:28;;;;;;;;;0.67;0.67;;;;;;;;5003462;28;61840;-75
2022/08/27 03:24:54;;;;;;;;;2.00;2.00;;;;;;;;5001310;28;62103;-75
2022/08/27 03:27:19;;;;;;;;;2.00;1.00;;;;;;;;5000754;28;62091;-75
2022/08/27 03:29:44;;;;;;;;;2.00;1.00;;;;;;;;4984555;28;63911;-75
2022/08/27 03:32:10;;;;;;;;;1.00;1.00;;;;;;;;5000920;28;62006;-74
2022/08/27 03:34:35;;;;;;;;;4.00;2.00;;;;;;;;4985045;28;61735;-75
2022/08/27 03:37:00;;;;;;;;;0.75;0.50;;;;;;;;4984781;28;62159;-75
2022/08/27 03:39:26;;;;;;;;;3.75;0.75;;;;;;;;5000720;28;61967;-75
2022/08/27 03:41:51;;;;;;;;;1.00;1.00;;;;;;;;4999867;28;62113;-75
2022/08/27 03:44:16;;;;;;;;;1.50;1.50;;;;;;;;5000759;28;61870;-75
2022/08/27 03:46:41;;;;;;;;;2.00;0.67;;;;;;;;5001441;28;61804;-75
2022/08/27 03:49:07;;;;;;;;;1.50;0.50;;;;;;;;4983756;28;63884;-75
2022/08/27 03:51:32;;;;;;;;;0.75;0.75;;;;;;;;5000977;28;61915;-75
2022/08/27 03:53:58;;;;;;;;;2.25;1.50;;;;;;;;4984302;28;61807;-75
2022/08/27 03:56:23;;;;;;;;;3.50;1.75;;;;;;;;5011303;28;61854;-75
2022/08/27 03:58:48;;;;;;;;;1.75;1.25;;;;;;;;5022822;28;61721;-75
2022/08/27 04:01:15;;;;;;;;;2.75;2.00;;;;;;;;5023020;28;61846;-75
2022/08/27 04:03:41;;;;;;;;;4.00;1.25;;;;;;;;5022114;28;61929;-75
2022/08/27 04:06:06;;;;;;;;;3.00;2.00;;;;;;;;5021567;28;61898;-75
2022/08/27 04:08:31;;;;;;;;;3.33;0.67;;;;;;;;5022632;28;62187;-75
2022/08/27 04:10:57;;;;;;;;;5.67;1.00;;;;;;;;5021336;28;61910;-75
2022/08/27 04:13:22;;;;;;;;;5.00;0.50;;;;;;;;5022735;28;61846;-75
2022/08/27 04:15:48;;;;;;;;;0.00;0.00;;;;;;;;5022077;28;62209;-75
2022/08/27 04:18:15;;;;;;;;;1.00;1.00;;;;;;;;5020800;28;64108;-75
2022/08/27 04:20:40;;;;;;;;;0.75;0.75;;;;;;;;5021443;28;61842;-75
2022/08/27 04:23:06;;;;;;;;;1.00;1.00;;;;;;;;5021470;28;61824;-75
2022/08/27 04:25:31;;;;;;;;;3.00;1.00;;;;;;;;5022532;28;62017;-75
2022/08/27 04:27:56;;;;;;;;;0.75;0.75;;;;;;;;5022178;28;62008;-75
2022/08/27 04:30:22;;;;;;;;;0.75;0.75;;;;;;;;5022669;28;61894;-75
2022/08/27 04:32:47;;;;;;;;;1.00;1.00;;;;;;;;5021487;28;62356;-75
2022/08/27 04:35:12;;;;;;;;;3.00;2.00;;;;;;;;5021549;28;62160;-75
2022/08/27 04:37:39;;;;;;;;;1.25;1.25;;;;;;;;5022231;28;62966;-75
2022/08/27 04:40:04;;;;;;;;;0.67;0.67;;;;;;;;5021285;28;61759;-75
2022/08/27 04:42:30;;;;;;;;;0.00;0.00;;;;;;;;5021851;28;62027;-75
2022/08/27 04:44:55;;;;;;;;;1.25;1.25;;;;;;;;5022878;28;61913;-75
2022/08/27 04:47:20;;;;;;;;;2.75;1.00;;;;;;;;5020224;28;63617;-75
2022/08/27 04:49:46;;;;;;;;;2.75;1.00;;;;;;;;5022710;28;61906;-75
2022/08/27 04:52:11;;;;;;;;;2.75;1.25;;;;;;;;5021166;28;61795;-75
2022/08/27 04:54:36;;;;;;;;;1.00;1.00;;;;;;;;5021906;28;61779;-75
2022/08/27 04:57:03;;;;;;;;;3.25;2.00;;;;;;;;5021841;28;61837;-75
2022/08/27 04:59:28;;;;;;;;;1.00;1.00;;;;;;;;5022145;28;62191;-75
2022/08/27 05:01:54;;;;;;;;;4.50;2.50;;;;;;;;5022449;28;61835;-75
2022/08/27 05:04:19;;;;;;;;;2.00;1.00;;;;;;;;5021040;28;61886;-75
2022/08/27 05:06:44;;;;;;;;;1.00;1.00;;;;;;;;5021655;28;62059;-75
2022/08/27 05:09:10;;;;;;;;;2.00;2.00;;;;;;;;5020674;28;61925;-75
2022/08/27 05:11:35;;;;;;;;;1.75;1.75;;;;;;;;5020403;28;61876;-75
2022/08/27 05:14:02;;;;;;;;;3.00;2.00;;;;;;;;5021276;28;61667;-75
2022/08/27 05:16:28;;;;;;;;;4.00;2.00;;;;;;;;5021443;28;62352;-75
2022/08/27 05:18:53;;;;;;;;;1.25;1.25;;;;;;;;5022212;28;61981;-75
2022/08/27 05:21:26;;;;;;;;;2.00;2.00;;;;;;;;5034721;28;61838;-75
2022/08/27 05:23:53;;;;;;;;;4.75;3.00;;;;;;;;5021896;28;61709;-75
2022/08/27 05:26:18;;;;;;;;;2.25;2.25;;;;;;;;5019541;28;64135;-75
2022/08/27 05:28:44;;;;;;;;;1.50;1.50;;;;;;;;5021945;28;62023;-75
2022/08/27 05:31:10;;;;;;;;;1.50;1.50;;;;;;;;5022211;28;61891;-75
2022/08/27 05:33:37;;;;;;;;;2.00;2.00;;;;;;;;5020545;28;61883;-75
2022/08/27 05:36:03;;;;;;;;;3.25;2.50;;;;;;;;5021394;28;63085;-75
2022/08/27 05:38:29;;;;;;;;;3.75;2.25;;;;;;;;5021414;28;61752;-75
2022/08/27 05:41:05;;;;;;;;;0.00;0.00;;;;;;;;5021877;28;61916;-75
2022/08/27 05:43:31;;;;;;;;;1.25;1.25;;;;;;;;5021815;28;61775;-76
2022/08/27 05:45:56;;;;;;;;;3.00;3.00;;;;;;;;5021315;28;61742;-75
2022/08/27 05:48:21;;;;;;;;;2.50;2.00;;;;;;;;5020354;28;61969;-75
2022/08/27 05:50:47;;;;;;;;;1.25;1.25;;;;;;;;5020309;28;62076;-75
2022/08/27 05:53:12;;;;;;;;;1.00;1.00;;;;;;;;5021485;28;61724;-75
2022/08/27 05:55:38;;;;;;;;;1.75;1.75;;;;;;;;5020462;28;63187;-75
2022/08/27 05:58:05;;;;;;;;;3.75;1.75;;;;;;;;5020376;28;61874;-75
2022/08/27 06:03:14;;;;;;;;;2.00;2.00;;;;;;;;5021819;28;61826;-75
2022/08/27 06:05:39;;;;;;;;;2.25;1.75;;;;;;;;5020102;28;63627;-75
2022/08/27 06:08:05;;;;;;;;;1.00;1.00;;;;;;;;5023497;28;62038;-75
2022/08/27 06:10:30;;;;;;;;;3.50;2.00;;;;;;;;5023435;28;61910;-75
2022/08/27 06:12:55;;;;;;;;;2.00;1.50;;;;;;;;5023923;28;61873;-75
2022/08/27 06:15:20;;;;;;;;;3.00;2.00;;;;;;;;5024485;28;62964;-75
2022/08/27 06:17:46;;;;;;;;;6.75;2.00;;;;;;;;5023423;28;61992;-75
2022/08/27 06:20:11;;;;;;;;;2.25;2.00;;;;;;;;5025171;28;61937;-75
2022/08/27 06:22:36;;;;;;;;;3.50;1.50;;;;;;;;5023232;28;62117;-75
2022/08/27 06:25:02;;;;;;;;;3.00;3.00;;;;;;;;5024488;28;61802;-75
2022/08/27 06:27:27;;;;;;;;;1.25;1.00;;;;;;;;5024377;28;62055;-75
2022/08/27 06:29:52;;;;;;;;;3.00;2.00;;;;;;;;5024852;28;61881;-75
2022/08/27 06:32:18;;;;;;;;;3.75;3.00;;;;;;;;5023697;28;61948;-75
2022/08/27 06:34:44;;;;;;;;;1.75;1.75;;;;;;;;5022634;28;63930;-76
2022/08/27 06:37:09;;;;;;;;;3.75;2.50;;;;;;;;5024539;28;61749;-76
2022/08/27 06:39:35;;;;;;;;;4.25;2.00;;;;;;;;5024460;28;61700;-76
2022/08/27 06:42:01;;;;;;;;;3.25;2.00;;;;;;;;5024288;28;61815;-75
2022/08/27 06:44:26;;;;;;;;;2.50;2.50;;;;;;;;5022780;28;63639;-75
2022/08/27 06:46:52;;;;;;;;;1.75;1.75;;;;;;;;5022862;28;61866;-75
2022/08/27 06:49:17;;;;;;;;;2.25;2.25;;;;;;;;5023023;28;61822;-75
2022/08/27 06:51:44;;;;;;;;;2.50;2.00;;;;;;;;5022592;28;61810;-75
2022/08/27 06:54:11;;;;;;;;;2.50;2.00;;;;;;;;5023450;28;61702;-75
2022/08/27 06:56:36;;;;;;;;;5.00;3.00;;;;;;;;5022318;28;61778;-76
2022/08/27 06:59:04;;;;;;;;;3.25;2.75;;;;;;;;5023077;28;62181;-75
2022/08/27 07:01:35;;;;;;;;;4.67;2.67;;;;;;;;5024515;28;61821;-75
2022/08/27 07:04:02;;;;;;;;;4.25;4.00;;;;;;;;5023248;28;61951;-75
2022/08/27 07:06:28;;;;;;;;;4.75;2.50;;;;;;;;5023916;28;61826;-75
2022/08/27 07:08:55;;;;;;;;;5.25;3.00;;;;;;;;5024106;28;61938;-75
2022/08/27 07:11:21;;;;;;;;;1.00;1.00;;;;;;;;5022772;28;62214;-75
2022/08/27 07:13:47;;;;;;;;;4.50;3.00;;;;;;;;5023084;28;61711;-75
2022/08/27 07:16:14;;;;;;;;;2.67;2.67;;;;;;;;5022867;28;61723;-75
2022/08/27 07:18:40;;;;;;;;;2.75;2.75;;;;;;;;5022503;28;61827;-76
2022/08/27 07:21:05;;;;;;;;;6.50;5.25;;;;;;;;5022639;28;62072;-75
2022/08/27 07:23:31;;;;;;;;;5.00;3.67;;;;;;;;5021920;28;64793;-76
2022/08/27 07:25:57;;;;;;;;;3.00;3.00;;;;;;;;5022322;28;61927;-75
2022/08/27 07:28:22;;;;;;;;;7.00;3.00;;;;;;;;5022684;28;61767;-75
2022/08/27 07:30:47;;;;;;;;;4.33;3.00;;;;;;;;5024011;28;61817;-75
2022/08/27 07:33:12;;;;;;;;;5.33;2.67;;;;;;;;5023485;28;61735;-75
2022/08/27 07:35:38;;;;;;;;;5.00;3.67;;;;;;;;5022431;28;61799;-76
2022/08/27 07:38:03;;;;;;;;;5.50;4.75;;;;;;;;5022605;28;61972;-75
2022/08/27 07:40:28;;;;;;;;;4.67;3.00;;;;;;;;5022866;28;61785;-75
2022/08/27 07:45:43;;;;;;;;;3.67;3.67;;;;;;;;5024096;28;61739;-75
2022/08/27 07:48:09;;;;;;;;;2.00;2.00;;;;;;;;5023838;28;61826;-75
2022/08/27 07:50:34;;;;;;;;;6.25;5.00;;;;;;;;5022268;28;61894;-76
2022/08/27 07:53:00;;;;;;;;;5.50;3.50;;;;;;;;5022753;28;61896;-76
2022/08/27 07:55:25;;;;;;;;;3.33;3.33;;;;;;;;5022401;28;62317;-76
2022/08/27 07:57:51;;;;;;;;;3.67;3.67;;;;;;;;5023405;28;62352;-75
2022/08/27 08:00:16;;;;;;;;;5.50;3.75;;;;;;;;5024025;28;61743;-75
2022/08/27 08:02:43;;;;;;;;;5.33;5.00;;;;;;;;5022968;28;63103;-76
2022/08/27 08:05:11;;;;;;;;;4.33;2.67;;;;;;;;5023399;28;61932;-76
2022/08/27 08:07:37;;;;;;;;;6.67;4.00;;;;;;;;5022137;28;61682;-75
2022/08/27 08:10:03;;;;;;;;;3.50;3.50;;;;;;;;5023511;28;61957;-75
2022/08/27 08:12:28;;;;;;;;;3.25;2.75;;;;;;;;5022483;28;61763;-76
2022/08/27 08:14:56;;;;;;;;;3.75;3.00;;;;;;;;5023322;28;61727;-76
2022/08/27 08:17:23;;;;;;;;;2.67;2.67;;;;;;;;5023320;28;61897;-76
2022/08/27 08:19:49;;;;;;;;;4.00;3.25;;;;;;;;5023344;28;61782;-76
2022/08/27 08:22:14;;;;;;;;;2.75;2.75;;;;;;;;5022713;28;62135;-76
2022/08/27 08:24:39;;;;;;;;;3.33;2.33;;;;;;;;5023207;28;61961;-76
2022/08/27 08:27:04;;;;;;;;;3.00;3.00;;;;;;;;5022751;28;62054;-75
2022/08/27 08:29:30;;;;;;;;;3.67;1.67;;;;;;;;5022968;28;62307;-75
2022/08/27 08:31:55;;;;;;;;;2.33;2.33;;;;;;;;5021935;28;62282;-76
2022/08/27 08:34:20;;;;;;;;;3.67;2.00;;;;;;;;5023368;28;61842;-76
2022/08/27 08:36:46;;;;;;;;;2.00;2.00;;;;;;;;5023123;28;62043;-75
2022/08/27 08:39:11;;;;;;;;;3.00;2.00;;;;;;;;5023279;28;61717;-75
2022/08/27 08:41:42;;;;;;;;;4.00;3.00;;;;;;;;5022125;28;62590;-75
2022/08/27 08:44:30;;;;;;;;;2.00;2.00;;;;;;;;5022652;28;61844;-75
2022/08/27 08:47:16;;;;;;;;;2.33;1.33;;;;;;;;5037703;28;61781;-75
2022/08/27 08:49:47;;;;;;;;;4.00;2.67;;;;;;;;5020189;28;61799;-76
2022/08/27 08:52:37;;;;;;;;;2.67;2.67;;;;;;;;5019514;28;63344;-75
2022/08/27 08:55:11;;;;;;;;;0.67;0.67;;;;;;;;5020219;28;62113;-76
2022/08/27 08:57:46;;;;;;;;;3.00;2.33;;;;;;;;5020323;28;61939;-75
2022/08/27 09:00:12;;;;;;;;;2.67;1.67;;;;;;;;5003797;28;62083;-76
2022/08/27 09:02:38;;;;;;;;;4.00;2.00;;;;;;;;5019460;28;62723;-76
2022/08/27 09:05:05;;;;;;;;;3.00;1.00;;;;;;;;5020134;28;61906;-75
2022/08/27 09:07:39;;;;;;;;;4.00;2.67;;;;;;;;5020185;28;61914;-75
2022/08/27 09:10:16;;;;;;;;;2.67;2.67;;;;;;;;5020430;28;61915;-76
2022/08/27 09:12:42;;;;;;;;;1.33;1.33;;;;;;;;5018992;28;62844;-75
2022/08/27 09:15:07;;;;;;;;;2.67;1.67;;;;;;;;5020055;28;62025;-76
2022/08/27 09:17:34;;;;;;;;;3.00;3.00;;;;;;;;5003400;28;61935;-76
2022/08/27 09:19:59;;;;;;;;;6.00;3.67;;;;;;;;5003304;28;61954;-76
2022/08/27 09:22:40;;;;;;;;;4.00;2.00;;;;;;;;5036974;28;62339;-75
2022/08/27 09:25:05;;;;;;;;;3.00;1.00;;;;;;;;5039619;28;61929;-75
2022/08/27 09:27:33;;;;;;;;;2.00;2.00;;;;;;;;5010492;28;61784;-76
2022/08/27 09:30:03;;;;;;;;;2.67;2.00;;;;;;;;5001402;28;61776;-76
2022/08/27 09:32:31;;;;;;;;;2.67;2.67;;;;;;;;5001770;28;62058;-76
2022/08/27 09:34:58;;;;;;;;;3.00;3.00;;;;;;;;5001330;28;61981;-75
2022/08/27 09:37:29;;;;;;;;;3.00;2.33;;;;;;;;5002426;28;61821;-76
2022/08/27 09:40:08;;;;;;;;;2.33;2.33;;;;;;;;5001324;28;61692;-75
2022/08/27 09:42:38;;;;;;;;;2.00;2.00;;;;;;;;5003431;28;63646;-76
2022/08/27 09:45:12;;;;;;;;;2.67;1.33;;;;;;;;5004434;28;61893;-76
2022/08/27 09:47:49;;;;;;;;;4.67;2.33;;;;;;;;5005938;28;61810;-75
2022/08/27 09:50:15;;;;;;;;;3.00;3.00;;;;;;;;5005874;28;61637;-76
2022/08/27 09:52:50;;;;;;;;;2.00;2.00;;;;;;;;5005078;28;62054;-76
2022/08/27 09:55:34;;;;;;;;;3.00;3.00;;;;;;;;5005118;28;62177;-77
2022/08/27 09:58:02;;;;;;;;;3.00;2.00;;;;;;;;5005558;28;62116;-75
2022/08/27 10:00:34;;;;;;;;;6.00;3.00;;;;;;;;5004201;28;61854;-75
2022/08/27 10:03:02;;;;;;;;;3.67;2.00;;;;;;;;5004834;28;61832;-76
2022/08/27 10:05:30;;;;;;;;;3.67;2.67;;;;;;;;5004048;28;61969;-75
2022/08/27 10:07:58;;;;;;;;;1.33;1.33;;;;;;;;5005517;28;61885;-76
2022/08/27 10:10:43;;;;;;;;;3.00;3.00;;;;;;;;5004344;28;62143;-75
2022/08/27 10:13:14;;;;;;;;;4.00;3.00;;;;;;;;5003234;28;64617;-76
2022/08/27 10:15:49;;;;;;;;;2.00;1.67;;;;;;;;5005342;28;62582;-75
2022/08/27 10:18:37;;;;;;;;;3.00;3.00;;;;;;;;5004030;28;61857;-75
2022/08/27 10:21:07;;;;;;;;;5.67;2.00;;;;;;;;5020485;28;62053;-76
2022/08/27 10:23:43;;;;;;;;;4.00;2.00;;;;;;;;5023950;28;61910;-75
2022/08/27 10:26:14;;;;;;;;;2.00;2.00;;;;;;;;5024993;28;61797;-75
2022/08/27 10:28:43;;;;;;;;;1.00;1.00;;;;;;;;5024859;28;61648;-75
2022/08/27 10:31:41;;;;;;;;;5.00;3.33;;;;;;;;5023811;28;61884;-75
2022/08/27 10:34:06;;;;;;;;;1.33;1.33;;;;;;;;5027858;28;63646;-75
2022/08/27 10:36:50;;;;;;;;;3.33;2.00;;;;;;;;5023509;28;61739;-75
2022/08/27 10:39:15;;;;;;;;;5.67;2.67;;;;;;;;5023862;28;61899;-75
2022/08/27 10:42:04;;;;;;;;;2.00;2.00;;;;;;;;5023438;28;62050;-75
2022/08/27 10:44:40;;;;;;;;;2.67;1.33;;;;;;;;5023467;28;62851;-75
2022/08/27 10:47:05;;;;;;;;;1.33;1.33;;;;;;;;5023213;28;61741;-75
2022/08/27 10:49:30;;;;;;;;;2.67;2.33;;;;;;;;5023080;28;61830;-75
2022/08/27 10:51:55;;;;;;;;;2.67;2.67;;;;;;;;5023134;28;62155;-75
2022/08/27 10:54:26;;;;;;;;;3.00;2.00;;;;;;;;5022673;28;63828;-75
2022/08/27 10:56:56;;;;;;;;;1.33;1.33;;;;;;;;5024167;28;61785;-75
2022/08/27 10:59:28;;;;;;;;;2.00;2.00;;;;;;;;5023403;28;62046;-75
2022/08/27 11:01:53;;;;;;;;;5.00;3.00;;;;;;;;5023456;28;62084;-75
2022/08/27 11:04:24;;;;;;;;;2.00;2.00;;;;;;;;5022519;28;63509;-75
2022/08/27 11:06:49;;;;;;;;;2.00;2.00;;;;;;;;5023278;28;61730;-76
2022/08/27 11:09:25;;;;;;;;;1.00;1.00;;;;;;;;5024903;28;61735;-75
2022/08/27 11:11:56;;;;;;;;;3.67;2.67;;;;;;;;5022967;28;61812;-75
2022/08/27 11:14:21;;;;;;;;;3.00;3.00;;;;;;;;5022765;28;64017;-75
2022/08/27 11:16:51;;;;;;;;;3.33;2.33;;;;;;;;5024443;28;61979;-76
2022/08/27 11:19:22;;;;;;;;;2.00;2.00;;;;;;;;5024438;28;61770;-75
2022/08/27 11:21:53;;;;;;;;;2.33;1.67;;;;;;;;5024443;28;62088;-75
2022/08/27 11:24:45;;;;;;;;;2.33;2.33;;;;;;;;5022201;28;63625;-75
2022/08/27 11:27:21;;;;;;;;;5.33;2.00;;;;;;;;5014884;28;62156;-76
2022/08/27 11:30:12;;;;;;;;;2.00;2.00;;;;;;;;5024449;28;61945;-75
2022/08/27 11:32:41;;;;;;;;;3.00;2.00;;;;;;;;5037083;28;62286;-76
2022/08/27 11:35:12;;;;;;;;;2.67;2.67;;;;;;;;5023705;28;61932;-76
2022/08/27 11:37:52;;;;;;;;;3.00;2.00;;;;;;;;5024180;28;61821;-75
2022/08/27 11:40:23;;;;;;;;;2.00;2.00;;;;;;;;5024040;28;61744;-75
2022/08/27 11:42:50;;;;;;;;;4.67;3.00;;;;;;;;5023589;28;61860;-75
2022/08/27 11:45:18;;;;;;;;;3.00;3.00;;;;;;;;5023594;28;61926;-75
2022/08/27 11:47:51;;;;;;;;;1.67;1.67;;;;;;;;5022329;28;61996;-75
2022/08/27 11:50:18;;;;;;;;;2.33;2.33;;;;;;;;5024076;28;61805;-75
2022/08/27 11:52:53;;;;;;;;;8.33;7.00;;;;;;;;5022419;28;61856;-75
2022/08/27 11:55:18;;;;;;;;;6.00;4.00;;;;;;;;5022822;28;63137;-75
2022/08/27 11:57:44;;;;;;;;;2.67;2.67;;;;;;;;5021986;28;61854;-75
2022/08/27 12:00:12;;;;;;;;;3.67;3.00;;;;;;;;5023962;28;61668;-75
2022/08/27 12:02:37;;;;;;;;;3.00;2.00;;;;;;;;5023444;28;62236;-75
2022/08/27 12:05:20;;;;;;;;;2.33;2.33;;;;;;;;5022656;28;62904;-75
2022/08/27 12:07:49;;;;;;;;;2.00;2.00;;;;;;;;5022240;28;61809;-75
2022/08/27 12:10:23;;;;;;;;;3.00;1.33;;;;;;;;5023653;28;61892;-75
2022/08/27 12:12:48;;;;;;;;;0.33;0.33;;;;;;;;5021941;28;61830;-75
2022/08/27 12:15:13;;;;;;;;;3.67;3.00;;;;;;;;5022903;28;61969;-75
2022/08/27 12:17:48;;;;;;;;;3.67;2.33;;;;;;;;5023528;28;61919;-75
2022/08/27 12:20:16;;;;;;;;;1.33;1.33;;;;;;;;5023432;28;61818;-75
2022/08/27 12:25:31;;;;;;;;;4.00;3.00;;;;;;;;5022674;28;61715;-76
2022/08/27 12:28:03;;;;;;;;;3.33;2.67;;;;;;;;5022764;28;61813;-75
2022/08/27 12:30:31;;;;;;;;;1.00;1.00;;;;;;;;5022246;28;61965;-75
2022/08/27 12:32:58;;;;;;;;;1.67;1.67;;;;;;;;5023232;28;62036;-75
2022/08/27 12:35:46;;;;;;;;;2.33;1.67;;;;;;;;5022797;28;62721;-75
2022/08/27 12:38:11;;;;;;;;;3.67;1.00;;;;;;;;5021609;28;61860;-76
2022/08/27 12:40:38;;;;;;;;;2.00;2.00;;;;;;;;5021678;28;61760;-76
2022/08/27 12:43:10;;;;;;;;;1.67;1.67;;;;;;;;5022958;28;62099;-76
2022/08/27 12:45:50;;;;;;;;;1.00;1.00;;;;;;;;5022600;28;61842;-76
2022/08/27 12:48:36;;;;;;;;;0.33;0.33;;;;;;;;5021576;28;61950;-76
2022/08/27 12:51:05;;;;;;;;;2.67;1.33;;;;;;;;5023084;28;62243;-76
2022/08/27 12:53:34;;;;;;;;;0.00;0.00;;;;;;;;5021307;28;62121;-76
2022/08/27 12:56:21;;;;;;;;;1.00;1.00;;;;;;;;5021745;28;62868;-76
2022/08/27 12:59:12;;;;;;;;;3.00;1.33;;;;;;;;5022943;28;61792;-76
2022/08/27 13:01:56;;;;;;;;;1.00;1.00;;;;;;;;5021801;28;61807;-76
2022/08/27 13:04:27;;;;;;;;;3.00;2.00;;;;;;;;5021578;28;62022;-76
2022/08/27 13:06:52;;;;;;;;;1.33;1.00;;;;;;;;5020391;28;63717;-76
2022/08/27 13:09:26;;;;;;;;;0.67;0.67;;;;;;;;5022463;28;61777;-76
2022/08/27 13:11:55;;;;;;;;;1.00;1.00;;;;;;;;5022459;28;61934;-76
2022/08/27 13:14:21;;;;;;;;;1.00;1.00;;;;;;;;5021057;28;61884;-76
2022/08/27 13:16:52;;;;;;;;;2.00;1.00;;;;;;;;5020516;28;62776;-76
2022/08/27 13:19:31;;;;;;;;;2.67;1.67;;;;;;;;5022001;28;61747;-76
2022/08/27 13:21:58;;;;;;;;;2.00;0.33;;;;;;;;5020662;28;61757;-76
2022/08/27 13:24:29;;;;;;;;;1.00;1.00;;;;;;;;5022387;28;61732;-76
2022/08/27 13:26:56;;;;;;;;;1.67;0.00;;;;;;;;5020097;28;64113;-76
2022/08/27 13:29:21;;;;;;;;;1.00;1.00;;;;;;;;5022343;28;61902;-76
2022/08/27 13:31:48;;;;;;;;;1.00;0.00;;;;;;;;5021162;28;61884;-76
2022/08/27 13:34:16;;;;;;;;;0.00;0.00;;;;;;;;5022359;28;61786;-76
2022/08/27 13:36:54;;;;;;;;;1.00;1.00;;;;;;;;5021585;28;63020;-76
2022/08/27 13:39:19;;;;;;;;;0.67;0.67;;;;;;;;5020926;28;61971;-77
2022/08/27 13:41:46;;;;;;;;;1.33;1.00;;;;;;;;5020773;28;61874;-77
2022/08/27 13:44:14;;;;;;;;;0.33;0.00;;;;;;;;5022246;28;61817;-77
2022/08/27 13:46:49;;;;;;;;;0.00;0.00;;;;;;;;5020476;28;63735;-77
2022/08/27 13:49:17;;;;;;;;;0.67;0.67;;;;;;;;5022141;28;62124;-77
2022/08/27 13:51:44;;;;;;;;;0.67;0.67;;;;;;;;5020715;28;61865;-77
2022/08/27 13:54:17;;;;;;;;;0.67;0.67;;;;;;;;5020642;28;61819;-77
2022/08/27 13:56:45;;;;;;;;;0.00;0.00;;;;;;;;5019752;28;64234;-77
2022/08/27 13:59:12;;;;;;;;;0.00;0.00;;;;;;;;5022047;28;61739;-77
2022/08/27 14:01:41;;;;;;;;;0.00;0.00;;;;;;;;5022293;28;61727;-77
2022/08/27 14:04:07;;;;;;;;;0.67;0.67;;;;;;;;5020685;28;62151;-77
2022/08/27 14:06:38;;;;;;;;;0.00;0.00;;;;;;;;5021328;28;62698;-77
2022/08/27 14:09:08;;;;;;;;;0.00;0.00;;;;;;;;5020608;28;61743;-77
2022/08/27 14:11:34;;;;;;;;;0.00;0.00;;;;;;;;5020510;28;62101;-77
2022/08/27 14:13:59;;;;;;;;;1.67;0.33;;;;;;;;5021980;28;61842;-77
2022/08/27 14:16:26;;;;;;;;;0.33;0.33;;;;;;;;5021451;28;61838;-77
2022/08/27 14:18:55;;;;;;;;;1.33;1.33;;;;;;;;5022154;28;61853;-77
2022/08/27 14:21:20;;;;;;;;;0.67;0.67;;;;;;;;5019936;28;61899;-77
2022/08/27 14:23:46;;;;;;;;;0.00;0.00;;;;;;;;5021765;28;61675;-77
2022/08/27 14:26:12;;;;;;;;;0.67;0.67;;;;;;;;5019664;28;64741;-77
2022/08/27 14:28:37;;;;;;;;;1.33;0.00;;;;;;;;5023839;28;61928;-77
2022/08/27 14:31:02;;;;;;;;;0.33;0.33;;;;;;;;5025354;28;61774;-77
2022/08/27 14:33:27;;;;;;;;;0.33;0.33;;;;;;;;5023747;28;61801;-77
2022/08/27 14:35:53;;;;;;;;;2.33;1.00;;;;;;;;5023069;28;63509;-77
2022/08/27 14:38:20;;;;;;;;;0.00;0.00;;;;;;;;5025194;28;61893;-77
2022/08/27 14:40:46;;;;;;;;;0.33;0.33;;;;;;;;5023744;28;62084;-77
2022/08/27 14:43:11;;;;;;;;;1.00;1.00;;;;;;;;5024755;28;61939;-77
2022/08/27 14:45:38;;;;;;;;;0.67;0.67;;;;;;;;5022866;28;63992;-76
2022/08/27 14:48:09;;;;;;;;;0.00;0.00;;;;;;;;5023624;28;61871;-77
2022/08/27 14:50:35;;;;;;;;;0.00;0.00;;;;;;;;5024593;28;61992;-77
2022/08/27 14:53:01;;;;;;;;;0.67;0.67;;;;;;;;5023470;28;61843;-77
2022/08/27 14:55:26;;;;;;;;;0.67;0.67;;;;;;;;5022845;28;63920;-77
2022/08/27 14:57:51;;;;;;;;;1.33;0.00;;;;;;;;5023284;28;62126;-77
2022/08/27 15:00:17;;;;;;;;;0.67;0.67;;;;;;;;5025317;28;61964;-77